Huntington, IN

7:50 AM EST on February 09, 2016 (GMT -0500)
Carlisle Crossing | | Change Station
CLOSE
Current Station
Personal Weather Station
Location: Huntington, IN
Elevation: 820 ft
Nearby Weather Stations
Active Advisory: Special Statement

Elev 820 ft 40.91 °N, 85.51 °W | Updated 4 minutes ago

Snow
Snow
21.2 °F
Feels Like 13 °F
N
6.3
Wind Variable Wind from SW

Today
High -- | Low -- °F
--% Chance of Precip.
Yesterday
High -- | Low -- °F
Precip. -- in
Pressure 29.66 in
Visibility 1.5 miles
Clouds Overcast 1400 ft
Windchill 13 °F
Dew Point 21 °F
Humidity 99%
Rainfall 0.00 in
Snow Depth Not available.
7:44 AM 6:08 PM
New Moon, 1% visible
SPECI KFWA 091239Z 27016KT 1 1/2SM -SN OVC014 M03/M07 A2966 RMK AO2 P0000 T10331067
Pressure 29.66 in
Visibility 1.5 miles
Clouds Overcast 1400 ft
Windchill 13 °F
Dew Point 21 °F
Humidity 99%
Rainfall 0.00 in
Snow Depth Not available.
7:44 AM 6:08 PM
New Moon, 1% visible
SPECI KFWA 091239Z 27016KT 1 1/2SM -SN OVC014 M03/M07 A2966 RMK AO2 P0000 T10331067

10-Day Weather Forecast

Almanac

Astronomy

Feb. 09, 2016 Rise Set
Actual Time
Civil Twilight
Nautical Twilight
Astronomical Twilight
Moon
Length of Visible Light
Length of Day
Tomorrow will be .
, % of the Moon is Illuminated

Today's Extremes

State Highs State Lows

Community

WunderPhotos

Upload Photos

1,891,589 photos uploaded!

WunderBlog® & News

Nearby

Air Quality

  Air Quality AQ Index Pollutant
Not available.

Snow Depth

Station Depth Elevation

Earthquake Activity

City Distance Mag. Time & Date
Minimum magnitude displayed is 2.5.

Coastal Water Temperatures

Place Temperature

Stations

Nearby Weather Stations

Station Location Temp. Windchill Dew Point Humidity Wind Precip. Elev Updated Type
                   

Watches & Warnings

Special Statement
Issued: 5:29 AM CST Feb. 9, 2016 – National Weather Service

... Icy spots possible for the morning commute...

Occasional... primarily light... snow showers will persist across
northern and far Southern Lower Michigan through the morning
hours. While amounts are expected to be light... a thin layer of
ice may develop as Road surfaces are at or just below freezing.
Use extra caution for the morning commute. Allow extra time to
reach your destination. Be especially cautious when driving on
bridges or overpasses and when encountering school buses.



629 am EST Tue Feb 9 2016 /529 am CST Tue Feb 9 2016/

... Icy spots possible for the morning commute...

Occasional... primarily light... snow showers will persist across
northern and far Southern Lower Michigan through the morning
hours. While amounts are expected to be light... a thin layer of
ice may develop as Road surfaces are at or just below freezing.
Use extra caution for the morning commute. Allow extra time to
reach your destination. Be especially cautious when driving on
bridges or overpasses and when encountering school buses.